sensor_id;sensor_type;location;lat;lon;timestamp;P1;durP1;ratioP1;P2;durP2;ratioP2
3726;SDS011;1879;45.876;12.300;2022-10-18T00:01:28;34.10;;;28.63;;
3726;SDS011;1879;45.876;12.300;2022-10-18T00:03:55;33.97;;;28.47;;
3726;SDS011;1879;45.876;12.300;2022-10-18T00:06:24;36.37;;;31.87;;
3726;SDS011;1879;45.876;12.300;2022-10-18T00:08:51;34.30;;;29.50;;
3726;SDS011;1879;45.876;12.300;2022-10-18T00:11:18;36.40;;;28.37;;
3726;SDS011;1879;45.876;12.300;2022-10-18T00:13:45;37.37;;;27.83;;
3726;SDS011;1879;45.876;12.300;2022-10-18T00:16:13;38.77;;;29.57;;
3726;SDS011;1879;45.876;12.300;2022-10-18T00:18:41;31.97;;;27.30;;
3726;SDS011;1879;45.876;12.300;2022-10-18T00:21:09;36.80;;;29.23;;
3726;SDS011;1879;45.876;12.300;2022-10-18T00:23:39;31.73;;;26.60;;
3726;SDS011;1879;45.876;12.300;2022-10-18T00:26:07;37.93;;;30.03;;
3726;SDS011;1879;45.876;12.300;2022-10-18T00:28:35;34.30;;;29.40;;
3726;SDS011;1879;45.876;12.300;2022-10-18T00:31:10;36.67;;;28.70;;
3726;SDS011;1879;45.876;12.300;2022-10-18T00:33:38;37.70;;;30.83;;
3726;SDS011;1879;45.876;12.300;2022-10-18T00:36:07;42.17;;;30.90;;
3726;SDS011;1879;45.876;12.300;2022-10-18T00:38:34;33.87;;;27.73;;
3726;SDS011;1879;45.876;12.300;2022-10-18T00:41:03;36.00;;;29.87;;
3726;SDS011;1879;45.876;12.300;2022-10-18T00:43:32;35.17;;;28.60;;
3726;SDS011;1879;45.876;12.300;2022-10-18T00:46:14;37.10;;;29.40;;
3726;SDS011;1879;45.876;12.300;2022-10-18T00:48:41;38.07;;;30.13;;
3726;SDS011;1879;45.876;12.300;2022-10-18T00:51:08;37.70;;;30.30;;
3726;SDS011;1879;45.876;12.300;2022-10-18T00:53:36;57.13;;;30.50;;
3726;SDS011;1879;45.876;12.300;2022-10-18T00:56:05;36.63;;;28.57;;
3726;SDS011;1879;45.876;12.300;2022-10-18T00:58:33;36.13;;;31.07;;
3726;SDS011;1879;45.876;12.300;2022-10-18T01:01:00;33.60;;;28.07;;
3726;SDS011;1879;45.876;12.300;2022-10-18T01:03:27;36.63;;;28.03;;
3726;SDS011;1879;45.876;12.300;2022-10-18T01:05:57;35.70;;;29.37;;
3726;SDS011;1879;45.876;12.300;2022-10-18T01:11:39;39.50;;;30.00;;
3726;SDS011;1879;45.876;12.300;2022-10-18T01:14:17;36.27;;;29.07;;
3726;SDS011;1879;45.876;12.300;2022-10-18T01:16:54;39.03;;;32.03;;
3726;SDS011;1879;45.876;12.300;2022-10-18T01:19:32;33.13;;;27.30;;
3726;SDS011;1879;45.876;12.300;2022-10-18T01:22:23;34.93;;;28.13;;
3726;SDS011;1879;45.876;12.300;2022-10-18T01:24:58;34.87;;;29.93;;
3726;SDS011;1879;45.876;12.300;2022-10-18T01:30:35;37.00;;;29.97;;
3726;SDS011;1879;45.876;12.300;2022-10-18T01:33:09;38.53;;;30.27;;
3726;SDS011;1879;45.876;12.300;2022-10-18T01:35:46;36.83;;;29.30;;
3726;SDS011;1879;45.876;12.300;2022-10-18T01:38:17;39.00;;;29.73;;
3726;SDS011;1879;45.876;12.300;2022-10-18T01:40:49;42.37;;;34.23;;
3726;SDS011;1879;45.876;12.300;2022-10-18T01:43:18;46.37;;;36.07;;
3726;SDS011;1879;45.876;12.300;2022-10-18T01:45:48;47.20;;;36.33;;
3726;SDS011;1879;45.876;12.300;2022-10-18T01:48:18;51.17;;;37.10;;
3726;SDS011;1879;45.876;12.300;2022-10-18T01:50:45;49.80;;;37.00;;
3726;SDS011;1879;45.876;12.300;2022-10-18T01:53:23;48.17;;;37.03;;
3726;SDS011;1879;45.876;12.300;2022-10-18T01:55:58;52.37;;;38.93;;
3726;SDS011;1879;45.876;12.300;2022-10-18T01:58:49;53.50;;;39.00;;
3726;SDS011;1879;45.876;12.300;2022-10-18T02:01:27;51.17;;;40.23;;
3726;SDS011;1879;45.876;12.300;2022-10-18T02:04:03;49.50;;;39.53;;
3726;SDS011;1879;45.876;12.300;2022-10-18T02:06:35;55.37;;;42.00;;
3726;SDS011;1879;45.876;12.300;2022-10-18T02:09:10;49.83;;;37.10;;
3726;SDS011;1879;45.876;12.300;2022-10-18T02:11:41;49.40;;;37.63;;
3726;SDS011;1879;45.876;12.300;2022-10-18T02:14:11;46.57;;;35.43;;
3726;SDS011;1879;45.876;12.300;2022-10-18T02:16:41;44.03;;;34.63;;
3726;SDS011;1879;45.876;12.300;2022-10-18T02:19:12;45.97;;;33.87;;
3726;SDS011;1879;45.876;12.300;2022-10-18T02:21:42;51.60;;;37.00;;
3726;SDS011;1879;45.876;12.300;2022-10-18T02:24:13;48.10;;;35.00;;
3726;SDS011;1879;45.876;12.300;2022-10-18T02:26:41;43.23;;;33.97;;
3726;SDS011;1879;45.876;12.300;2022-10-18T02:29:08;44.13;;;33.60;;
3726;SDS011;1879;45.876;12.300;2022-10-18T02:31:38;54.30;;;36.80;;
3726;SDS011;1879;45.876;12.300;2022-10-18T02:34:10;53.30;;;38.87;;
3726;SDS011;1879;45.876;12.300;2022-10-18T02:36:45;51.83;;;38.43;;
3726;SDS011;1879;45.876;12.300;2022-10-18T02:39:17;53.57;;;40.67;;
3726;SDS011;1879;45.876;12.300;2022-10-18T02:41:46;47.17;;;39.17;;
3726;SDS011;1879;45.876;12.300;2022-10-18T02:44:14;55.03;;;41.70;;
3726;SDS011;1879;45.876;12.300;2022-10-18T02:46:42;51.00;;;37.50;;
3726;SDS011;1879;45.876;12.300;2022-10-18T02:49:10;52.90;;;39.27;;
3726;SDS011;1879;45.876;12.300;2022-10-18T02:51:37;50.70;;;35.33;;
3726;SDS011;1879;45.876;12.300;2022-10-18T02:54:04;51.90;;;36.60;;
3726;SDS011;1879;45.876;12.300;2022-10-18T02:56:32;47.23;;;34.97;;
3726;SDS011;1879;45.876;12.300;2022-10-18T02:58:59;51.30;;;38.87;;
3726;SDS011;1879;45.876;12.300;2022-10-18T03:01:27;51.80;;;36.20;;
3726;SDS011;1879;45.876;12.300;2022-10-18T03:03:56;44.23;;;33.73;;
3726;SDS011;1879;45.876;12.300;2022-10-18T03:06:23;42.30;;;32.17;;
3726;SDS011;1879;45.876;12.300;2022-10-18T03:08:50;40.30;;;29.50;;
3726;SDS011;1879;45.876;12.300;2022-10-18T03:11:17;35.30;;;28.70;;
3726;SDS011;1879;45.876;12.300;2022-10-18T03:13:44;34.63;;;27.43;;
3726;SDS011;1879;45.876;12.300;2022-10-18T03:16:11;36.80;;;26.80;;
3726;SDS011;1879;45.876;12.300;2022-10-18T03:18:38;36.40;;;28.93;;
3726;SDS011;1879;45.876;12.300;2022-10-18T03:21:07;31.27;;;26.43;;
3726;SDS011;1879;45.876;12.300;2022-10-18T03:23:34;30.80;;;26.27;;
3726;SDS011;1879;45.876;12.300;2022-10-18T03:26:01;30.60;;;23.07;;
3726;SDS011;1879;45.876;12.300;2022-10-18T03:28:28;29.37;;;24.87;;
3726;SDS011;1879;45.876;12.300;2022-10-18T03:30:58;30.33;;;24.70;;
3726;SDS011;1879;45.876;12.300;2022-10-18T03:33:26;31.30;;;23.00;;
3726;SDS011;1879;45.876;12.300;2022-10-18T03:35:53;26.67;;;23.10;;
3726;SDS011;1879;45.876;12.300;2022-10-18T03:38:22;34.00;;;27.03;;
3726;SDS011;1879;45.876;12.300;2022-10-18T03:40:48;30.70;;;24.23;;
3726;SDS011;1879;45.876;12.300;2022-10-18T03:43:16;29.63;;;23.13;;
3726;SDS011;1879;45.876;12.300;2022-10-18T03:45:42;33.90;;;28.40;;
3726;SDS011;1879;45.876;12.300;2022-10-18T03:48:09;34.37;;;28.20;;
3726;SDS011;1879;45.876;12.300;2022-10-18T03:50:36;39.77;;;29.13;;
3726;SDS011;1879;45.876;12.300;2022-10-18T03:53:04;30.37;;;24.63;;
3726;SDS011;1879;45.876;12.300;2022-10-18T03:55:32;25.43;;;22.77;;
3726;SDS011;1879;45.876;12.300;2022-10-18T03:57:59;32.80;;;27.93;;
3726;SDS011;1879;45.876;12.300;2022-10-18T04:00:26;33.47;;;25.73;;
3726;SDS011;1879;45.876;12.300;2022-10-18T04:02:53;37.50;;;30.00;;
3726;SDS011;1879;45.876;12.300;2022-10-18T04:05:20;36.00;;;28.17;;
3726;SDS011;1879;45.876;12.300;2022-10-18T04:07:50;38.67;;;26.97;;
3726;SDS011;1879;45.876;12.300;2022-10-18T04:10:17;32.37;;;25.80;;
3726;SDS011;1879;45.876;12.300;2022-10-18T04:12:46;30.97;;;25.23;;
3726;SDS011;1879;45.876;12.300;2022-10-18T04:15:13;35.63;;;27.27;;
3726;SDS011;1879;45.876;12.300;2022-10-18T04:17:40;37.03;;;26.00;;
3726;SDS011;1879;45.876;12.300;2022-10-18T04:20:08;30.13;;;24.13;;
3726;SDS011;1879;45.876;12.300;2022-10-18T04:22:35;27.50;;;23.50;;
3726;SDS011;1879;45.876;12.300;2022-10-18T04:25:02;24.83;;;22.13;;
3726;SDS011;1879;45.876;12.300;2022-10-18T04:27:30;27.80;;;21.80;;
3726;SDS011;1879;45.876;12.300;2022-10-18T04:29:58;27.80;;;23.07;;
3726;SDS011;1879;45.876;12.300;2022-10-18T04:32:25;23.07;;;19.67;;
3726;SDS011;1879;45.876;12.300;2022-10-18T04:34:53;24.50;;;21.00;;
3726;SDS011;1879;45.876;12.300;2022-10-18T04:37:20;24.50;;;19.40;;
3726;SDS011;1879;45.876;12.300;2022-10-18T04:39:47;23.53;;;21.00;;
3726;SDS011;1879;45.876;12.300;2022-10-18T04:42:14;24.40;;;20.50;;
3726;SDS011;1879;45.876;12.300;2022-10-18T04:44:41;23.97;;;19.67;;
3726;SDS011;1879;45.876;12.300;2022-10-18T04:47:09;27.20;;;22.83;;
3726;SDS011;1879;45.876;12.300;2022-10-18T04:49:36;27.93;;;22.20;;
3726;SDS011;1879;45.876;12.300;2022-10-18T04:52:04;29.40;;;23.40;;
3726;SDS011;1879;45.876;12.300;2022-10-18T04:54:31;29.50;;;23.10;;
3726;SDS011;1879;45.876;12.300;2022-10-18T04:56:58;24.77;;;21.20;;
3726;SDS011;1879;45.876;12.300;2022-10-18T04:59:25;24.30;;;21.60;;
3726;SDS011;1879;45.876;12.300;2022-10-18T05:01:52;37.13;;;23.30;;
3726;SDS011;1879;45.876;12.300;2022-10-18T05:04:20;27.17;;;22.33;;
3726;SDS011;1879;45.876;12.300;2022-10-18T05:06:47;30.30;;;23.27;;
3726;SDS011;1879;45.876;12.300;2022-10-18T05:09:14;26.20;;;22.70;;
3726;SDS011;1879;45.876;12.300;2022-10-18T05:11:41;28.77;;;22.90;;
3726;SDS011;1879;45.876;12.300;2022-10-18T05:14:08;25.60;;;22.40;;
3726;SDS011;1879;45.876;12.300;2022-10-18T05:16:35;28.50;;;23.10;;
3726;SDS011;1879;45.876;12.300;2022-10-18T05:19:03;27.47;;;21.77;;
3726;SDS011;1879;45.876;12.300;2022-10-18T05:21:32;29.70;;;22.30;;
3726;SDS011;1879;45.876;12.300;2022-10-18T05:23:59;27.23;;;22.77;;
3726;SDS011;1879;45.876;12.300;2022-10-18T05:26:26;27.93;;;22.90;;
3726;SDS011;1879;45.876;12.300;2022-10-18T05:28:53;25.90;;;22.60;;
3726;SDS011;1879;45.876;12.300;2022-10-18T05:31:20;28.60;;;24.20;;
3726;SDS011;1879;45.876;12.300;2022-10-18T05:33:47;26.03;;;22.23;;
3726;SDS011;1879;45.876;12.300;2022-10-18T05:36:14;25.83;;;22.47;;
3726;SDS011;1879;45.876;12.300;2022-10-18T05:38:43;26.10;;;22.40;;
3726;SDS011;1879;45.876;12.300;2022-10-18T05:41:12;25.90;;;22.40;;
3726;SDS011;1879;45.876;12.300;2022-10-18T05:43:39;31.30;;;23.80;;
3726;SDS011;1879;45.876;12.300;2022-10-18T05:46:06;27.47;;;22.73;;
3726;SDS011;1879;45.876;12.300;2022-10-18T05:48:35;27.73;;;23.57;;
3726;SDS011;1879;45.876;12.300;2022-10-18T05:51:02;27.50;;;22.90;;
3726;SDS011;1879;45.876;12.300;2022-10-18T05:53:29;25.40;;;21.33;;
3726;SDS011;1879;45.876;12.300;2022-10-18T05:55:59;23.27;;;20.13;;
3726;SDS011;1879;45.876;12.300;2022-10-18T05:58:26;25.00;;;19.83;;
3726;SDS011;1879;45.876;12.300;2022-10-18T06:00:54;26.10;;;20.87;;
3726;SDS011;1879;45.876;12.300;2022-10-18T06:03:24;28.90;;;22.10;;
3726;SDS011;1879;45.876;12.300;2022-10-18T06:05:57;25.27;;;19.07;;
3726;SDS011;1879;45.876;12.300;2022-10-18T06:08:24;21.70;;;19.20;;
3726;SDS011;1879;45.876;12.300;2022-10-18T06:10:52;22.10;;;18.20;;
3726;SDS011;1879;45.876;12.300;2022-10-18T06:13:20;24.07;;;21.40;;
3726;SDS011;1879;45.876;12.300;2022-10-18T06:15:47;22.23;;;19.43;;
3726;SDS011;1879;45.876;12.300;2022-10-18T06:18:14;25.03;;;21.57;;
3726;SDS011;1879;45.876;12.300;2022-10-18T06:20:41;23.40;;;20.90;;
3726;SDS011;1879;45.876;12.300;2022-10-18T06:23:08;26.87;;;21.03;;
3726;SDS011;1879;45.876;12.300;2022-10-18T06:25:35;25.50;;;22.73;;
3726;SDS011;1879;45.876;12.300;2022-10-18T06:28:05;28.83;;;21.67;;
3726;SDS011;1879;45.876;12.300;2022-10-18T06:30:33;24.53;;;20.10;;
3726;SDS011;1879;45.876;12.300;2022-10-18T06:33:01;21.90;;;19.43;;
3726;SDS011;1879;45.876;12.300;2022-10-18T06:35:28;23.43;;;20.63;;
3726;SDS011;1879;45.876;12.300;2022-10-18T06:37:55;21.90;;;19.40;;
3726;SDS011;1879;45.876;12.300;2022-10-18T06:40:22;25.50;;;20.70;;
3726;SDS011;1879;45.876;12.300;2022-10-18T06:42:49;21.53;;;18.03;;
3726;SDS011;1879;45.876;12.300;2022-10-18T06:45:16;24.57;;;18.83;;
3726;SDS011;1879;45.876;12.300;2022-10-18T06:47:44;22.63;;;19.13;;
3726;SDS011;1879;45.876;12.300;2022-10-18T06:50:11;21.53;;;18.43;;
3726;SDS011;1879;45.876;12.300;2022-10-18T06:52:38;23.70;;;18.73;;
3726;SDS011;1879;45.876;12.300;2022-10-18T06:55:07;24.10;;;19.00;;
3726;SDS011;1879;45.876;12.300;2022-10-18T06:57:34;24.10;;;19.60;;
3726;SDS011;1879;45.876;12.300;2022-10-18T07:00:02;22.20;;;19.13;;
3726;SDS011;1879;45.876;12.300;2022-10-18T07:02:30;22.13;;;18.70;;
3726;SDS011;1879;45.876;12.300;2022-10-18T07:04:58;22.17;;;19.33;;
3726;SDS011;1879;45.876;12.300;2022-10-18T07:07:25;21.80;;;18.50;;
3726;SDS011;1879;45.876;12.300;2022-10-18T07:09:55;26.77;;;18.50;;
3726;SDS011;1879;45.876;12.300;2022-10-18T07:12:22;24.03;;;18.20;;
3726;SDS011;1879;45.876;12.300;2022-10-18T07:14:52;21.30;;;17.00;;
3726;SDS011;1879;45.876;12.300;2022-10-18T07:17:19;20.77;;;18.60;;
3726;SDS011;1879;45.876;12.300;2022-10-18T07:19:46;24.43;;;19.10;;
3726;SDS011;1879;45.876;12.300;2022-10-18T07:22:14;21.03;;;18.83;;
3726;SDS011;1879;45.876;12.300;2022-10-18T07:24:41;22.60;;;19.53;;
3726;SDS011;1879;45.876;12.300;2022-10-18T07:27:08;26.03;;;20.50;;
3726;SDS011;1879;45.876;12.300;2022-10-18T07:29:36;23.57;;;20.10;;
3726;SDS011;1879;45.876;12.300;2022-10-18T07:32:04;25.17;;;22.37;;
3726;SDS011;1879;45.876;12.300;2022-10-18T07:34:31;27.73;;;23.57;;
3726;SDS011;1879;45.876;12.300;2022-10-18T07:36:58;32.33;;;26.97;;
3726;SDS011;1879;45.876;12.300;2022-10-18T07:39:28;31.33;;;23.90;;
3726;SDS011;1879;45.876;12.300;2022-10-18T07:41:55;35.47;;;25.50;;
3726;SDS011;1879;45.876;12.300;2022-10-18T07:44:22;28.03;;;23.53;;
3726;SDS011;1879;45.876;12.300;2022-10-18T07:46:50;26.93;;;23.90;;
3726;SDS011;1879;45.876;12.300;2022-10-18T07:49:17;30.73;;;25.53;;
3726;SDS011;1879;45.876;12.300;2022-10-18T07:51:44;30.23;;;23.97;;
3726;SDS011;1879;45.876;12.300;2022-10-18T07:54:11;29.80;;;23.40;;
3726;SDS011;1879;45.876;12.300;2022-10-18T07:56:39;29.30;;;23.70;;
3726;SDS011;1879;45.876;12.300;2022-10-18T07:59:07;24.33;;;21.57;;
3726;SDS011;1879;45.876;12.300;2022-10-18T08:01:35;26.93;;;21.13;;
3726;SDS011;1879;45.876;12.300;2022-10-18T08:04:02;37.13;;;21.80;;
3726;SDS011;1879;45.876;12.300;2022-10-18T08:06:29;23.60;;;20.80;;
3726;SDS011;1879;45.876;12.300;2022-10-18T08:08:56;23.77;;;19.53;;
3726;SDS011;1879;45.876;12.300;2022-10-18T08:11:24;26.93;;;20.13;;
3726;SDS011;1879;45.876;12.300;2022-10-18T08:13:53;25.87;;;21.30;;
3726;SDS011;1879;45.876;12.300;2022-10-18T08:16:21;26.20;;;20.43;;
3726;SDS011;1879;45.876;12.300;2022-10-18T08:18:49;24.20;;;20.70;;
3726;SDS011;1879;45.876;12.300;2022-10-18T08:21:16;26.07;;;22.50;;
3726;SDS011;1879;45.876;12.300;2022-10-18T08:23:44;26.07;;;23.27;;
3726;SDS011;1879;45.876;12.300;2022-10-18T08:26:12;25.40;;;20.87;;
3726;SDS011;1879;45.876;12.300;2022-10-18T08:28:40;25.80;;;21.00;;
3726;SDS011;1879;45.876;12.300;2022-10-18T08:31:10;29.53;;;22.23;;
3726;SDS011;1879;45.876;12.300;2022-10-18T08:33:39;25.07;;;21.80;;
3726;SDS011;1879;45.876;12.300;2022-10-18T08:36:06;25.20;;;22.20;;
3726;SDS011;1879;45.876;12.300;2022-10-18T08:38:36;24.93;;;21.17;;
3726;SDS011;1879;45.876;12.300;2022-10-18T08:41:15;23.80;;;20.70;;
3726;SDS011;1879;45.876;12.300;2022-10-18T08:44:02;23.33;;;20.80;;
3726;SDS011;1879;45.876;12.300;2022-10-18T08:46:34;21.30;;;19.10;;
3726;SDS011;1879;45.876;12.300;2022-10-18T08:49:04;22.90;;;20.40;;
3726;SDS011;1879;45.876;12.300;2022-10-18T08:51:37;22.80;;;20.60;;
3726;SDS011;1879;45.876;12.300;2022-10-18T08:54:10;21.43;;;19.20;;
3726;SDS011;1879;45.876;12.300;2022-10-18T08:56:39;21.60;;;19.40;;
3726;SDS011;1879;45.876;12.300;2022-10-18T08:59:10;24.63;;;19.20;;
3726;SDS011;1879;45.876;12.300;2022-10-18T09:01:40;22.80;;;18.77;;
3726;SDS011;1879;45.876;12.300;2022-10-18T09:07:16;23.97;;;19.63;;
3726;SDS011;1879;45.876;12.300;2022-10-18T09:10:06;24.37;;;21.77;;
3726;SDS011;1879;45.876;12.300;2022-10-18T09:12:51;23.77;;;21.10;;
3726;SDS011;1879;45.876;12.300;2022-10-18T09:15:28;22.63;;;20.23;;
3726;SDS011;1879;45.876;12.300;2022-10-18T09:18:10;29.20;;;22.73;;
3726;SDS011;1879;45.876;12.300;2022-10-18T09:20:48;24.17;;;21.40;;
3726;SDS011;1879;45.876;12.300;2022-10-18T09:23:19;26.30;;;23.50;;
3726;SDS011;1879;45.876;12.300;2022-10-18T09:25:48;27.50;;;22.73;;
3726;SDS011;1879;45.876;12.300;2022-10-18T09:28:20;29.23;;;25.17;;
3726;SDS011;1879;45.876;12.300;2022-10-18T09:30:57;31.30;;;25.53;;
3726;SDS011;1879;45.876;12.300;2022-10-18T09:33:36;30.23;;;24.00;;
3726;SDS011;1879;45.876;12.300;2022-10-18T09:36:08;25.57;;;22.70;;
3726;SDS011;1879;45.876;12.300;2022-10-18T09:38:41;24.90;;;21.37;;
3726;SDS011;1879;45.876;12.300;2022-10-18T09:41:12;23.60;;;21.13;;
3726;SDS011;1879;45.876;12.300;2022-10-18T09:43:48;24.30;;;21.60;;
3726;SDS011;1879;45.876;12.300;2022-10-18T09:46:20;22.30;;;20.00;;
3726;SDS011;1879;45.876;12.300;2022-10-18T09:48:52;23.00;;;20.60;;
3726;SDS011;1879;45.876;12.300;2022-10-18T09:51:25;22.97;;;20.60;;
3726;SDS011;1879;45.876;12.300;2022-10-18T09:54:02;25.83;;;21.70;;
3726;SDS011;1879;45.876;12.300;2022-10-18T09:56:37;23.70;;;21.30;;
3726;SDS011;1879;45.876;12.300;2022-10-18T09:59:14;25.63;;;22.93;;
3726;SDS011;1879;45.876;12.300;2022-10-18T10:02:00;28.83;;;25.63;;
3726;SDS011;1879;45.876;12.300;2022-10-18T10:04:29;27.47;;;24.03;;
3726;SDS011;1879;45.876;12.300;2022-10-18T10:06:58;28.50;;;25.50;;
3726;SDS011;1879;45.876;12.300;2022-10-18T10:09:26;31.10;;;27.80;;
3726;SDS011;1879;45.876;12.300;2022-10-18T10:12:22;30.13;;;26.93;;
3726;SDS011;1879;45.876;12.300;2022-10-18T10:15:00;28.20;;;25.20;;
3726;SDS011;1879;45.876;12.300;2022-10-18T10:17:33;27.70;;;24.67;;
3726;SDS011;1879;45.876;12.300;2022-10-18T10:20:03;26.13;;;23.43;;
3726;SDS011;1879;45.876;12.300;2022-10-18T10:22:39;28.47;;;23.10;;
3726;SDS011;1879;45.876;12.300;2022-10-18T10:25:15;25.50;;;22.53;;
3726;SDS011;1879;45.876;12.300;2022-10-18T10:27:47;26.20;;;23.33;;
3726;SDS011;1879;45.876;12.300;2022-10-18T10:30:21;24.57;;;22.07;;
3726;SDS011;1879;45.876;12.300;2022-10-18T10:32:51;27.47;;;24.63;;
3726;SDS011;1879;45.876;12.300;2022-10-18T10:35:26;27.50;;;24.90;;
3726;SDS011;1879;45.876;12.300;2022-10-18T10:37:56;26.93;;;24.10;;
3726;SDS011;1879;45.876;12.300;2022-10-18T10:40:23;27.10;;;24.27;;
3726;SDS011;1879;45.876;12.300;2022-10-18T10:42:53;28.20;;;24.47;;
3726;SDS011;1879;45.876;12.300;2022-10-18T10:45:25;27.37;;;24.43;;
3726;SDS011;1879;45.876;12.300;2022-10-18T10:48:00;27.27;;;24.33;;
3726;SDS011;1879;45.876;12.300;2022-10-18T10:50:31;25.67;;;23.07;;
3726;SDS011;1879;45.876;12.300;2022-10-18T10:53:32;26.93;;;23.17;;
3726;SDS011;1879;45.876;12.300;2022-10-18T10:56:03;27.27;;;24.07;;
3726;SDS011;1879;45.876;12.300;2022-10-18T10:58:33;27.47;;;24.67;;
3726;SDS011;1879;45.876;12.300;2022-10-18T11:03:46;26.70;;;23.97;;
3726;SDS011;1879;45.876;12.300;2022-10-18T11:09:15;27.97;;;24.67;;
3726;SDS011;1879;45.876;12.300;2022-10-18T11:11:52;28.00;;;25.00;;
3726;SDS011;1879;45.876;12.300;2022-10-18T11:14:28;26.90;;;24.07;;
3726;SDS011;1879;45.876;12.300;2022-10-18T11:17:05;24.03;;;21.83;;
3726;SDS011;1879;45.876;12.300;2022-10-18T11:19:41;25.67;;;23.27;;
3726;SDS011;1879;45.876;12.300;2022-10-18T11:22:19;25.70;;;23.10;;
3726;SDS011;1879;45.876;12.300;2022-10-18T11:24:49;27.17;;;24.67;;
3726;SDS011;1879;45.876;12.300;2022-10-18T11:27:17;26.47;;;24.10;;
3726;SDS011;1879;45.876;12.300;2022-10-18T11:29:53;24.50;;;22.40;;
3726;SDS011;1879;45.876;12.300;2022-10-18T11:32:40;25.33;;;23.03;;
3726;SDS011;1879;45.876;12.300;2022-10-18T11:35:21;25.03;;;22.70;;
3726;SDS011;1879;45.876;12.300;2022-10-18T11:38:05;26.57;;;24.07;;
3726;SDS011;1879;45.876;12.300;2022-10-18T11:40:48;22.80;;;20.90;;
3726;SDS011;1879;45.876;12.300;2022-10-18T11:43:22;22.87;;;20.93;;
3726;SDS011;1879;45.876;12.300;2022-10-18T11:45:54;22.90;;;20.90;;
3726;SDS011;1879;45.876;12.300;2022-10-18T11:48:36;23.10;;;21.00;;
3726;SDS011;1879;45.876;12.300;2022-10-18T11:51:13;22.97;;;20.97;;
3726;SDS011;1879;45.876;12.300;2022-10-18T11:53:51;22.60;;;20.70;;
3726;SDS011;1879;45.876;12.300;2022-10-18T11:56:29;22.70;;;20.80;;
3726;SDS011;1879;45.876;12.300;2022-10-18T11:59:06;22.30;;;20.50;;
3726;SDS011;1879;45.876;12.300;2022-10-18T12:01:50;22.63;;;20.27;;
3726;SDS011;1879;45.876;12.300;2022-10-18T12:04:22;22.03;;;20.03;;
3726;SDS011;1879;45.876;12.300;2022-10-18T12:06:54;21.93;;;20.03;;
